Time;durP1;ratioP1;P1;durP2;ratioP2;P2;SDS_P1;SDS_P2;PMS_P1;PMS_P2;Temp;Humidity;BMP_temperature;BMP_pressure;BME280_temperature;BME280_humidity;BME280_pressure;Samples;Min_cycle;Max_cycle;Signal;HPM_P1;HPM_P2
2022/10/30 00:01:31;;;;;;;;;83.00;68.00;;;;;11.97;100.00;100406.47;6267631;20;1921919;-70
2022/10/30 00:04:01;;;;;;;;;78.50;62.00;;;;;11.98;100.00;100418.97;6269954;20;4412791;-70
2022/10/30 00:06:28;;;;;;;;;85.00;64.00;;;;;11.98;100.00;100402.84;6306209;20;1922294;-70
2022/10/30 00:08:58;;;;;;;;;78.33;59.00;;;;;11.87;100.00;100397.16;6274224;20;3654535;-69
2022/10/30 00:11:28;;;;;;;;;81.25;69.00;;;;;11.86;100.00;100398.13;6271940;20;4421066;-70
2022/10/30 00:13:57;;;;;;;;;82.50;63.75;;;;;11.90;100.00;100399.69;6304772;20;4408937;-71
2022/10/30 00:16:25;;;;;;;;;88.00;65.00;;;;;11.95;100.00;100391.34;6300549;20;1924858;-70
2022/10/30 00:18:55;;;;;;;;;79.00;61.33;;;;;11.87;100.00;100399.84;6271815;20;3670076;-70
2022/10/30 00:21:24;;;;;;;;;82.75;65.25;;;;;11.90;100.00;100399.69;6274777;20;4425257;-70
2022/10/30 00:23:54;;;;;;;;;80.25;60.50;;;;;11.91;100.00;100400.56;6298614;20;4411742;-69
2022/10/30 00:26:24;;;;;;;;;81.25;65.25;;;;;11.85;100.00;100391.84;6306046;20;4403498;-70
2022/10/30 00:28:54;;;;;;;;;85.00;68.00;;;;;11.94;100.00;100400.38;6301873;20;1934850;-70
2022/10/30 00:31:24;;;;;;;;;78.67;60.00;;;;;12.06;100.00;100397.88;6270605;20;3657671;-70
2022/10/30 00:33:54;;;;;;;;;80.25;61.50;;;;;12.02;100.00;100400.81;6269325;20;4419102;-70
2022/10/30 00:36:24;;;;;;;;;82.25;65.50;;;;;11.88;100.00;100382.75;6301658;20;4408633;-70
2022/10/30 00:38:53;;;;;;;;;76.50;60.75;;;;;12.00;100.00;100387.44;6303445;20;4394071;-70
2022/10/30 00:41:24;;;;;;;;;75.50;60.50;;;;;12.03;100.00;100383.72;6303325;20;4394057;-70
2022/10/30 00:43:53;;;;;;;;;78.25;61.50;;;;;12.07;100.00;100375.38;6299168;20;4396227;-70
2022/10/30 00:46:36;;;;;;;;;74.75;58.00;;;;;12.05;100.00;100366.53;6300331;20;4403418;-70
2022/10/30 00:49:17;;;;;;;;;77.75;59.75;;;;;11.99;100.00;100364.19;6300839;20;3641938;-70
2022/10/30 00:51:53;;;;;;;;;79.00;63.50;;;;;11.98;100.00;100359.78;6297815;20;1926496;-70
2022/10/30 00:54:23;;;;;;;;;77.75;58.50;;;;;12.04;100.00;100359.41;6270069;20;4414880;-70
2022/10/30 00:56:55;;;;;;;;;79.75;59.75;;;;;11.94;100.00;100351.94;6301942;20;4390919;-70
2022/10/30 00:59:29;;;;;;;;;79.00;63.00;;;;;11.93;100.00;100351.09;6296601;20;1930331;-71
2022/10/30 01:02:02;;;;;;;;;78.75;61.00;;;;;11.92;100.00;100352.03;6269946;20;4420503;-70
2022/10/30 01:04:37;;;;;;;;;84.75;68.50;;;;;11.90;100.00;100370.09;6296063;20;4425346;-70
2022/10/30 01:07:13;;;;;;;;;84.00;63.00;;;;;12.01;100.00;100359.59;6300710;20;4404552;-70
2022/10/30 01:09:46;;;;;;;;;86.33;67.67;;;;;11.91;100.00;100344.91;6304992;20;3671119;-70
2022/10/30 01:12:17;;;;;;;;;82.00;63.50;;;;;12.03;100.00;100360.38;6301960;20;4421137;-69
2022/10/30 01:14:54;;;;;;;;;83.00;65.00;;;;;12.01;100.00;100353.34;6301715;20;4400238;-70
2022/10/30 01:17:45;;;;;;;;;81.00;64.75;;;;;11.95;100.00;100350.97;6300299;20;4410690;-70
2022/10/30 01:20:22;;;;;;;;;77.00;64.00;;;;;11.99;100.00;100344.47;6299623;20;1927486;-70
2022/10/30 01:23:45;;;;;;;;;79.50;63.50;;;;;12.01;100.00;100346.13;6263840;20;1927457;-70
2022/10/30 01:26:47;;;;;;;;;79.50;63.00;;;;;11.85;100.00;100347.94;6266802;20;1929459;-70
2022/10/30 01:29:55;;;;;;;;;82.50;63.00;;;;;12.00;100.00;100351.59;6264743;20;1927334;-70
2022/10/30 01:32:59;;;;;;;;;79.00;61.00;;;;;11.92;100.00;100338.56;6268630;20;1920110;-70
2022/10/30 01:36:23;;;;;;;;;80.00;60.33;;;;;11.95;100.00;100341.06;6269704;20;3661760;-68
2022/10/30 01:39:03;;;;;;;;;82.25;67.75;;;;;11.93;100.00;100339.44;6266917;20;4414832;-69
2022/10/30 01:41:32;;;;;;;;;83.50;66.50;;;;;12.01;100.00;100345.28;6302324;20;4415898;-70
2022/10/30 01:44:12;;;;;;;;;78.50;61.00;;;;;12.04;100.00;100337.00;6296217;20;1933753;-70
2022/10/30 01:47:39;;;;;;;;;79.00;59.00;;;;;12.11;100.00;100337.50;6269677;20;1919064;-70
2022/10/30 01:50:51;;;;;;;;;78.67;60.00;;;;;12.08;100.00;100347.53;6298367;20;3653380;-70
2022/10/30 01:53:51;;;;;;;;;79.75;60.50;;;;;12.03;100.00;100346.03;6272194;20;4414841;-70
2022/10/30 01:57:22;;;;;;;;;80.33;58.33;;;;;12.01;100.00;100345.28;6307636;20;3671184;-70
2022/10/30 02:00:08;;;;;;;;;84.00;65.00;;;;;12.09;100.00;100340.31;6303875;20;1917073;-69
2022/10/30 02:02:38;;;;;;;;;77.00;57.67;;;;;12.02;100.00;100339.78;6271882;20;3653414;-70
2022/10/30 02:05:18;;;;;;;;;81.50;67.00;;;;;12.08;100.00;100339.44;6274293;20;4401306;-70
2022/10/30 02:07:46;;;;;;;;;76.00;59.00;;;;;12.11;100.00;100337.50;6308083;20;2727567;-71
2022/10/30 02:10:16;;;;;;;;;77.25;60.00;;;;;12.13;100.00;100335.59;6306170;20;4395052;-70
2022/10/30 02:12:46;;;;;;;;;76.00;57.50;;;;;11.92;100.00;100337.72;6306036;20;4408623;-70
2022/10/30 02:15:16;;;;;;;;;74.75;57.25;;;;;12.13;100.00;100338.31;6307713;20;4396183;-70
2022/10/30 02:17:45;;;;;;;;;69.67;52.00;;;;;12.05;100.00;100334.22;6305325;20;3633646;-70
2022/10/30 02:20:25;;;;;;;;;77.75;60.50;;;;;12.03;100.00;100332.56;6275222;20;4396095;-71
2022/10/30 02:22:53;;;;;;;;;76.00;57.50;;;;;12.17;100.00;100329.09;6300257;20;1923372;-70
2022/10/30 02:25:27;;;;;;;;;74.25;55.75;;;;;11.97;100.00;100339.16;6277383;20;4398072;-69
2022/10/30 02:27:55;;;;;;;;;76.50;55.50;;;;;11.98;100.00;100332.84;6301989;20;1924370;-70
2022/10/30 02:30:25;;;;;;;;;80.25;60.75;;;;;12.13;100.00;100322.16;6277637;20;4412891;-70
2022/10/30 02:32:54;;;;;;;;;75.00;57.00;;;;;12.10;100.00;100319.66;6305913;20;4415992;-69
2022/10/30 02:35:24;;;;;;;;;77.25;57.50;;;;;12.07;100.00;100320.69;6308663;20;4406524;-69
2022/10/30 02:37:53;;;;;;;;;71.67;54.00;;;;;12.11;100.00;100311.47;6304417;20;3633733;-70
2022/10/30 02:40:23;;;;;;;;;72.75;50.25;;;;;12.10;100.00;100316.94;6273348;20;4403424;-69
2022/10/30 02:42:53;;;;;;;;;80.00;58.00;;;;;12.00;100.00;100314.78;6305031;20;4403319;-70
2022/10/30 02:45:23;;;;;;;;;73.25;56.00;;;;;11.96;100.00;100312.38;6301932;20;4394008;-70
2022/10/30 02:47:52;;;;;;;;;70.67;54.00;;;;;12.10;100.00;100322.34;6301881;20;3620164;-69
2022/10/30 02:50:20;;;;;;;;;78.00;58.00;;;;;12.12;100.00;100323.13;6269142;20;1925318;-69
2022/10/30 02:52:49;;;;;;;;;73.33;55.33;;;;;12.04;100.00;100320.88;6269689;20;3641877;-68
2022/10/30 02:55:19;;;;;;;;;73.50;57.75;;;;;12.01;100.00;100319.22;6305100;20;4399183;-69
2022/10/30 02:57:48;;;;;;;;;69.67;53.33;;;;;12.13;100.00;100328.41;6307306;20;3612889;-68
2022/10/30 03:00:17;;;;;;;;;71.00;54.00;;;;;12.24;100.00;100327.78;6273778;20;3622193;-68
2022/10/30 03:02:46;;;;;;;;;71.00;53.00;;;;;12.13;100.00;100324.84;6303677;20;3626464;-68
2022/10/30 03:05:15;;;;;;;;;67.75;51.25;;;;;12.10;100.00;100339.34;6275368;20;3630510;-68
2022/10/30 03:07:47;;;;;;;;;69.33;52.00;;;;;12.00;100.00;100330.91;6303758;20;3630467;-69
2022/10/30 03:10:17;;;;;;;;;69.00;51.75;;;;;12.11;100.00;100322.22;6273575;20;3626446;-69
2022/10/30 03:12:46;;;;;;;;;68.33;52.00;;;;;12.08;100.00;100323.31;6301402;20;3623341;-69
2022/10/30 03:15:15;;;;;;;;;70.00;53.00;;;;;12.02;100.00;100334.41;6276354;20;3619055;-69
2022/10/30 03:17:44;;;;;;;;;68.33;52.33;;;;;12.04;100.00;100332.50;6269556;20;3609655;-69
2022/10/30 03:20:12;;;;;;;;;70.67;53.67;;;;;12.14;100.00;100335.53;6273785;20;3631507;-70
2022/10/30 03:22:42;;;;;;;;;74.75;53.25;;;;;12.13;100.00;100330.22;6273802;20;4404386;-69
2022/10/30 03:25:11;;;;;;;;;68.25;51.00;;;;;12.20;100.00;100332.47;6306145;20;3643079;-69
2022/10/30 03:27:41;;;;;;;;;71.75;52.00;;;;;12.05;100.00;100328.84;6305660;20;3640946;-69
2022/10/30 03:30:11;;;;;;;;;67.33;52.00;;;;;12.13;100.00;100332.91;6304890;20;3611704;-69
2022/10/30 03:32:39;;;;;;;;;70.67;52.67;;;;;12.22;100.00;100324.31;6306083;20;3613796;-69
2022/10/30 03:35:08;;;;;;;;;69.50;53.00;;;;;12.30;100.00;100338.22;6271133;20;3507568;-69
2022/10/30 03:37:37;;;;;;;;;72.33;52.67;;;;;12.14;100.00;100331.94;6299229;20;3640908;-69
2022/10/30 03:40:08;;;;;;;;;65.00;50.33;;;;;12.13;100.00;100327.53;6271162;20;3624288;-69
2022/10/30 03:42:40;;;;;;;;;72.00;51.75;;;;;12.06;100.00;100327.91;6302907;20;4388804;-69
2022/10/30 03:45:09;;;;;;;;;72.75;51.50;;;;;12.19;100.00;100329.84;6304116;20;4410636;-69
2022/10/30 03:47:40;;;;;;;;;66.50;51.50;;;;;12.16;100.00;100325.53;6303193;20;3632191;-69
2022/10/30 03:50:09;;;;;;;;;64.00;50.67;;;;;12.27;100.00;100316.84;6306847;20;3618971;-69
2022/10/30 03:52:38;;;;;;;;;73.33;53.33;;;;;12.17;100.00;100323.72;6271252;20;3641008;-69
2022/10/30 03:55:08;;;;;;;;;70.00;52.00;;;;;12.08;100.00;100328.69;6271001;20;3620054;-69
2022/10/30 03:57:38;;;;;;;;;71.00;52.75;;;;;12.23;100.00;100326.06;6304416;20;4389811;-69
2022/10/30 04:00:08;;;;;;;;;68.00;50.67;;;;;12.24;100.00;100339.44;6304579;20;3612866;-70
2022/10/30 04:02:36;;;;;;;;;71.33;54.00;;;;;12.13;100.00;100330.22;6271041;20;3637812;-69
2022/10/30 04:05:07;;;;;;;;;68.75;52.75;;;;;12.10;100.00;100323.19;6272229;20;3634661;-69
2022/10/30 04:07:36;;;;;;;;;67.75;50.75;;;;;12.32;100.00;100341.66;6306256;20;3635765;-69
2022/10/30 04:10:06;;;;;;;;;65.75;48.00;;;;;12.29;100.00;100336.44;6304590;20;3637917;-69
2022/10/30 04:12:35;;;;;;;;;62.67;47.67;;;;;12.20;100.00;100337.00;6300687;20;3609806;-69
2022/10/30 04:15:07;;;;;;;;;64.67;50.33;;;;;12.25;100.00;100334.91;6271402;20;3605534;-69
2022/10/30 04:17:37;;;;;;;;;63.25;47.25;;;;;12.11;100.00;100338.38;6300791;20;3640101;-69
2022/10/30 04:20:07;;;;;;;;;63.75;47.50;;;;;12.07;100.00;100331.44;6303644;20;3641026;-69
2022/10/30 04:22:36;;;;;;;;;64.67;49.00;;;;;12.08;100.00;100333.19;6303699;20;3623299;-69
2022/10/30 04:25:05;;;;;;;;;62.00;50.00;;;;;12.08;100.00;100311.63;6273504;20;3596091;-69
2022/10/30 04:27:44;;;;;;;;;67.33;50.33;;;;;12.11;100.00;100321.38;6271855;20;3646277;-69
2022/10/30 04:30:13;;;;;;;;;65.00;50.33;;;;;12.17;100.00;100321.91;6303971;20;3612911;-70
2022/10/30 04:32:49;;;;;;;;;65.00;50.67;;;;;12.08;100.00;100309.84;6267633;20;3614803;-70
2022/10/30 04:35:27;;;;;;;;;67.00;50.00;;;;;12.18;100.00;100309.28;6304351;20;3633626;-69
2022/10/30 04:38:03;;;;;;;;;64.67;51.33;;;;;12.22;100.00;100314.41;6304690;20;3598277;-69
2022/10/30 04:40:37;;;;;;;;;68.00;52.00;;;;;12.26;100.00;100315.09;6270873;20;3635698;-69
2022/10/30 04:43:09;;;;;;;;;66.00;50.00;;;;;12.23;100.00;100317.97;6266890;20;3635718;-69
2022/10/30 04:45:40;;;;;;;;;69.00;50.67;;;;;12.14;100.00;100322.06;6299093;20;3615982;-69
2022/10/30 04:48:16;;;;;;;;;72.75;51.00;;;;;12.07;100.00;100320.69;6301598;20;4397727;-69
2022/10/30 04:50:45;;;;;;;;;60.50;46.75;;;;;12.01;100.00;100327.28;6305872;20;4371095;-70
2022/10/30 04:53:18;;;;;;;;;64.25;50.00;;;;;11.99;100.00;100315.75;6303204;20;3628517;-69
2022/10/30 04:55:51;;;;;;;;;60.00;46.00;;;;;11.99;100.00;100320.25;6300977;20;3644171;-69
2022/10/30 04:58:21;;;;;;;;;61.67;46.33;;;;;11.91;100.00;100320.69;6266401;20;3640900;-69
2022/10/30 05:00:50;;;;;;;;;66.25;46.75;;;;;11.91;100.00;100327.91;6307246;20;4399197;-70
2022/10/30 05:03:23;;;;;;;;;59.00;46.25;;;;;11.93;100.00;100321.50;6301141;20;3637845;-69
2022/10/30 05:06:02;;;;;;;;;61.67;46.00;;;;;12.00;100.00;100322.00;6300660;20;3642986;-70
2022/10/30 05:08:32;;;;;;;;;60.67;46.00;;;;;12.01;100.00;100315.66;6267624;20;3629442;-69
2022/10/30 05:11:05;;;;;;;;;55.67;41.67;;;;;11.97;100.00;100312.25;6266414;20;3635668;-69
2022/10/30 05:13:34;;;;;;;;;65.00;48.00;;;;;11.91;100.00;100319.84;6264315;20;3630540;-69
2022/10/30 05:16:03;;;;;;;;;57.00;44.67;;;;;11.84;100.00;100320.13;6303379;20;3616921;-69
2022/10/30 05:18:33;;;;;;;;;58.50;45.50;;;;;11.95;100.00;100322.25;6270620;20;3622173;-70
2022/10/30 05:21:02;;;;;;;;;61.25;44.75;;;;;11.97;100.00;100324.84;6304618;20;3648280;-70
2022/10/30 05:23:32;;;;;;;;;60.33;46.00;;;;;11.99;100.00;100331.88;6298924;20;3633618;-69
2022/10/30 05:26:01;;;;;;;;;57.50;45.25;;;;;11.98;100.00;100343.63;6302219;20;3627502;-70
2022/10/30 05:28:31;;;;;;;;;59.50;44.25;;;;;11.88;100.00;100337.03;6301289;20;4404484;-70
2022/10/30 05:31:00;;;;;;;;;50.33;40.33;;;;;11.84;100.00;100338.97;6300627;20;3591124;-70
2022/10/30 05:33:29;;;;;;;;;50.67;40.67;;;;;11.84;100.00;100347.03;6265523;20;3600286;-69
2022/10/30 05:35:59;;;;;;;;;53.67;40.33;;;;;11.92;100.00;100333.19;6299158;20;3633701;-70
2022/10/30 05:38:28;;;;;;;;;54.33;40.67;;;;;11.89;100.00;100332.50;6302922;20;3614935;-70
2022/10/30 05:40:57;;;;;;;;;55.67;43.67;;;;;11.86;100.00;100336.22;6268413;20;3633652;-70
2022/10/30 05:43:27;;;;;;;;;58.67;42.67;;;;;11.91;100.00;100331.47;6267940;20;3632584;-69
2022/10/30 05:45:58;;;;;;;;;52.00;41.67;;;;;11.89;100.00;100337.88;6303013;20;3611859;-70
2022/10/30 05:48:28;;;;;;;;;54.33;43.00;;;;;11.85;100.00;100329.97;6267925;20;3618083;-70
2022/10/30 05:51:01;;;;;;;;;52.75;40.00;;;;;11.86;100.00;100333.53;6299598;20;3621078;-69
2022/10/30 05:53:31;;;;;;;;;51.50;38.75;;;;;11.83;100.00;100334.56;6299951;20;3625303;-69
2022/10/30 05:56:03;;;;;;;;;46.00;37.33;;;;;11.88;100.00;100331.63;6294102;20;3592944;-69
2022/10/30 05:58:32;;;;;;;;;52.00;37.00;;;;;11.84;100.00;100332.72;6300860;20;3613799;-69
2022/10/30 06:01:06;;;;;;;;;50.67;39.00;;;;;11.77;100.00;100337.59;6264335;20;3626295;-68
2022/10/30 06:03:35;;;;;;;;;47.33;36.33;;;;;12.01;100.00;100338.06;6297869;20;3612891;-69
2022/10/30 06:06:05;;;;;;;;;49.00;39.33;;;;;12.04;100.00;100345.94;6267770;20;2864935;-69
2022/10/30 06:08:34;;;;;;;;;47.67;35.67;;;;;12.02;100.00;100345.16;6302965;20;3611010;-70
2022/10/30 06:11:03;;;;;;;;;48.00;41.00;;;;;12.00;100.00;100347.06;6268548;20;3601271;-69
2022/10/30 06:13:32;;;;;;;;;45.33;38.00;;;;;11.92;100.00;100349.31;6266170;20;2850310;-69
2022/10/30 06:16:01;;;;;;;;;44.33;37.00;;;;;11.86;100.00;100338.91;6297615;20;3592962;-69
2022/10/30 06:18:30;;;;;;;;;46.67;37.67;;;;;11.99;100.00;100342.66;6268560;20;3603403;-69
2022/10/30 06:20:58;;;;;;;;;47.00;35.33;;;;;11.94;100.00;100350.13;6272275;20;3613340;-71
2022/10/30 06:23:28;;;;;;;;;48.33;35.33;;;;;11.85;100.00;100364.06;6270316;20;3611902;-70
2022/10/30 06:26:00;;;;;;;;;48.67;37.67;;;;;11.86;100.00;100360.44;6301153;20;3599273;-71
2022/10/30 06:28:29;;;;;;;;;46.33;36.33;;;;;11.85;100.00;100359.56;6269746;20;2864926;-70
2022/10/30 06:30:58;;;;;;;;;50.67;37.67;;;;;11.98;100.00;100351.69;6297261;20;3612477;-68
2022/10/30 06:33:27;;;;;;;;;48.33;35.00;;;;;11.97;100.00;100352.63;6272013;20;3608718;-69
2022/10/30 06:35:56;;;;;;;;;49.67;35.67;;;;;11.97;100.00;100346.38;6269950;20;3607712;-70
2022/10/30 06:38:24;;;;;;;;;39.50;33.00;;;;;11.90;100.00;100345.00;6267466;20;2832538;-69
2022/10/30 06:40:54;;;;;;;;;44.33;34.33;;;;;11.82;100.00;100345.38;6267973;20;3599243;-70
2022/10/30 06:43:23;;;;;;;;;43.33;34.67;;;;;11.96;100.00;100356.28;6306504;20;3585768;-69
2022/10/30 06:45:51;;;;;;;;;48.00;34.67;;;;;12.08;100.00;100355.59;6271209;20;3608647;-69
2022/10/30 06:48:20;;;;;;;;;42.33;33.67;;;;;12.08;100.00;100376.25;6270487;20;3599238;-68
2022/10/30 06:50:57;;;;;;;;;44.67;34.33;;;;;12.02;100.00;100372.06;6275118;20;3601294;-68
2022/10/30 06:53:27;;;;;;;;;48.67;38.33;;;;;12.03;100.00;100373.84;6268471;20;3620122;-69
2022/10/30 06:56:02;;;;;;;;;46.67;36.00;;;;;12.17;100.00;100380.25;6303623;20;3597186;-69
2022/10/30 06:58:37;;;;;;;;;48.33;37.33;;;;;12.21;100.00;100373.72;6271656;20;3603483;-69
2022/10/30 07:01:07;;;;;;;;;48.00;34.00;;;;;12.12;100.00;100360.81;6300734;20;3484841;-70
2022/10/30 07:03:36;;;;;;;;;48.00;35.00;;;;;11.93;100.00;100345.69;6297293;20;3606682;-70
2022/10/30 07:06:06;;;;;;;;;50.00;37.33;;;;;12.01;100.00;100359.59;6300307;20;3591049;-68
2022/10/30 07:08:35;;;;;;;;;51.00;37.33;;;;;12.00;100.00;100368.59;6303680;20;3621636;-70
2022/10/30 07:11:05;;;;;;;;;48.00;38.00;;;;;12.15;100.00;100366.00;6272655;20;2867095;-69
2022/10/30 07:13:34;;;;;;;;;76.25;54.00;;;;;12.28;100.00;100364.34;6304415;20;4402302;-69
2022/10/30 07:16:04;;;;;;;;;58.50;45.00;;;;;12.29;100.00;100366.06;6302935;20;3640897;-69
2022/10/30 07:18:33;;;;;;;;;36.67;34.00;;;;;11.99;100.00;100344.47;6302368;20;3587971;-69
2022/10/30 07:21:02;;;;;;;;;52.33;35.33;;;;;12.05;100.00;100357.59;6273128;20;3629447;-69
2022/10/30 07:23:32;;;;;;;;;141.33;117.00;;;;;12.18;100.00;100368.53;6272404;20;3733383;-69
2022/10/30 07:26:01;;;;;;;;;58.33;44.33;;;;;12.14;100.00;100357.06;6271921;20;2874232;-69
2022/10/30 07:28:35;;;;;;;;;124.25;113.50;;;;;12.27;100.00;100363.47;6305157;20;4481491;-69
2022/10/30 07:31:05;;;;;;;;;69.50;53.50;;;;;12.18;100.00;100374.78;6267154;20;3646228;-68
2022/10/30 07:33:34;;;;;;;;;57.33;43.67;;;;;12.20;100.00;100363.91;6297065;20;3623321;-69
2022/10/30 07:36:03;;;;;;;;;82.00;71.50;;;;;12.51;100.00;100373.78;6297674;20;1938936;-70
2022/10/30 07:38:32;;;;;;;;;49.00;39.33;;;;;12.45;100.00;100375.03;6271856;20;3608652;-69
2022/10/30 07:41:01;;;;;;;;;49.67;39.67;;;;;12.42;100.00;100375.16;6270694;20;3621164;-69
2022/10/30 07:43:31;;;;;;;;;61.67;45.00;;;;;12.44;100.00;100386.72;6301465;20;3639862;-69
2022/10/30 07:46:00;;;;;;;;;49.67;37.00;;;;;12.41;100.00;100388.75;6300870;20;3609621;-68
2022/10/30 07:48:29;;;;;;;;;47.67;36.00;;;;;12.34;100.00;100380.13;6270515;20;3603450;-69
2022/10/30 07:50:59;;;;;;;;;50.33;38.00;;;;;12.43;100.00;100387.69;6268910;20;3614893;-69
2022/10/30 07:53:28;;;;;;;;;38.67;34.33;;;;;12.43;100.00;100381.44;6304079;20;3581638;-68
2022/10/30 07:55:58;;;;;;;;;50.33;38.00;;;;;12.41;100.00;100388.75;6268796;20;3619501;-68
2022/10/30 07:58:28;;;;;;;;;36.00;31.67;;;;;12.35;100.00;100387.28;6300546;20;2868192;-68
2022/10/30 08:00:57;;;;;;;;;49.00;37.00;;;;;12.46;100.00;100379.44;6296712;20;3612967;-69
2022/10/30 08:03:26;;;;;;;;;47.67;37.33;;;;;12.51;100.00;100380.03;6304011;20;3604539;-68
2022/10/30 08:05:56;;;;;;;;;63.25;49.00;;;;;12.36;100.00;100382.75;6276467;20;4376303;-69
2022/10/30 08:08:26;;;;;;;;;49.67;39.00;;;;;12.12;100.00;100376.97;6297866;20;3609159;-69
2022/10/30 08:10:55;;;;;;;;;60.33;49.67;;;;;12.33;100.00;100386.50;6303761;20;3616999;-69
2022/10/30 08:13:25;;;;;;;;;54.75;41.00;;;;;12.28;100.00;100372.44;6270677;20;3627478;-69
2022/10/30 08:15:56;;;;;;;;;46.67;36.00;;;;;12.43;100.00;100379.63;6302528;20;3615935;-68
2022/10/30 08:18:26;;;;;;;;;50.00;39.00;;;;;12.42;100.00;100379.69;6270474;20;3613913;-70
2022/10/30 08:20:55;;;;;;;;;49.75;38.75;;;;;12.40;100.00;100368.13;6306616;20;3626345;-66
2022/10/30 08:23:25;;;;;;;;;62.00;46.25;;;;;12.41;100.00;100370.75;6303700;20;3635673;-68
2022/10/30 08:26:00;;;;;;;;;52.50;43.75;;;;;12.29;100.00;100368.75;6307323;20;3618022;-68
2022/10/30 08:28:31;;;;;;;;;75.25;56.25;;;;;12.42;100.00;100377.88;6301737;20;3642079;-69
2022/10/30 08:31:02;;;;;;;;;73.50;56.25;;;;;12.53;100.00;100374.53;6303547;20;4393008;-68
2022/10/30 08:33:31;;;;;;;;;56.67;42.67;;;;;12.48;100.00;100372.16;6303023;20;3612941;-68
2022/10/30 08:36:01;;;;;;;;;61.00;49.00;;;;;12.57;100.00;100361.78;6269539;20;3625364;-70
2022/10/30 08:38:30;;;;;;;;;51.00;40.67;;;;;12.70;100.00;100370.88;6302228;20;3612831;-70
2022/10/30 08:41:02;;;;;;;;;50.00;39.33;;;;;12.57;100.00;100369.88;6307292;20;3625372;-68
2022/10/30 08:43:31;;;;;;;;;52.33;39.67;;;;;12.64;100.00;100366.72;6273304;20;3598170;-70
2022/10/30 08:46:03;;;;;;;;;47.33;35.00;;;;;12.69;100.00;100370.00;6303556;20;3617992;-69
2022/10/30 08:48:32;;;;;;;;;44.67;35.33;;;;;12.75;100.00;100368.78;6271984;20;3602336;-69
2022/10/30 08:51:00;;;;;;;;;25.50;20.00;;;;;12.72;100.00;100374.34;6276665;20;2811761;-69
2022/10/30 08:53:29;;;;;;;;;45.50;36.00;;;;;12.65;100.00;100375.66;6268759;20;2856627;-68
2022/10/30 08:55:58;;;;;;;;;45.67;35.67;;;;;12.82;100.00;100383.63;6274729;20;3608670;-69
2022/10/30 08:58:27;;;;;;;;;44.33;36.67;;;;;12.87;100.00;100376.09;6309607;20;3588844;-68
2022/10/30 09:00:57;;;;;;;;;51.33;39.33;;;;;12.77;100.00;100374.06;6265816;20;3609731;-69
2022/10/30 09:03:29;;;;;;;;;64.00;49.67;;;;;12.77;100.00;100374.94;6307544;20;3601350;-69
2022/10/30 09:06:04;;;;;;;;;56.00;45.00;;;;;12.82;100.00;100382.72;6272063;20;3612804;-69
2022/10/30 09:08:34;;;;;;;;;56.25;42.00;;;;;12.83;100.00;100390.75;6270945;20;3644193;-68
2022/10/30 09:11:03;;;;;;;;;46.67;39.33;;;;;12.73;100.00;100392.25;6306717;20;3605487;-68
2022/10/30 09:13:32;;;;;;;;;42.50;34.00;;;;;12.89;100.00;100394.88;6267219;20;2848291;-68
2022/10/30 09:16:05;;;;;;;;;48.67;36.00;;;;;12.85;100.00;100383.44;6268037;20;3633684;-69
2022/10/30 09:18:34;;;;;;;;;49.33;39.33;;;;;13.05;100.00;100393.00;6308031;20;3598152;-69
2022/10/30 09:21:04;;;;;;;;;66.00;51.67;;;;;12.83;100.00;100388.03;6266474;20;3613879;-69
2022/10/30 09:23:32;;;;;;;;;92.00;75.00;;;;;12.83;100.00;100393.44;6298683;20;1930622;-68
2022/10/30 09:26:01;;;;;;;;;57.67;44.00;;;;;12.79;100.00;100383.78;6267952;20;3638889;-71
2022/10/30 09:28:31;;;;;;;;;52.00;40.00;;;;;12.99;100.00;100392.53;6266689;20;3630578;-69
2022/10/30 09:31:02;;;;;;;;;50.67;40.67;;;;;13.17;100.00;100399.50;6266002;20;3612785;-69
2022/10/30 09:33:32;;;;;;;;;57.00;43.75;;;;;12.92;100.00;100382.09;6305347;20;3626434;-68
2022/10/30 09:36:01;;;;;;;;;49.33;40.00;;;;;13.01;100.00;100382.53;6303612;20;3603515;-69
2022/10/30 09:38:30;;;;;;;;;41.33;34.00;;;;;12.62;100.00;100376.72;6273629;20;3583693;-69
2022/10/30 09:41:25;;;;;;;;;45.33;37.33;;;;;12.70;100.00;100390.59;6268111;20;3598658;-69
2022/10/30 09:44:42;;;;;;;;;46.33;36.67;;;;;12.89;100.00;100401.13;6298849;20;3596159;-69
2022/10/30 09:47:56;;;;;;;;;47.67;36.00;;;;;12.70;100.00;100389.72;6269760;20;2858729;-69
2022/10/30 09:51:05;;;;;;;;;51.00;38.25;;;;;12.92;100.00;100390.16;6306716;20;3622123;-69
2022/10/30 09:54:02;;;;;;;;;46.00;37.00;;;;;12.93;100.00;100381.16;6308263;20;3595160;-69
2022/10/30 09:56:53;;;;;;;;;48.33;35.33;;;;;12.76;100.00;100366.94;6274025;20;3617970;-69
2022/10/30 10:00:01;;;;;;;;;41.50;34.50;;;;;12.78;100.00;100370.41;6265618;20;2836721;-71
2022/10/30 10:03:18;;;;;;;;;47.00;39.00;;;;;12.77;100.00;100369.56;6268497;20;3601293;-68
2022/10/30 10:06:24;;;;;;;;;52.00;41.00;;;;;12.68;100.00;100381.72;6302617;20;3605085;-70
2022/10/30 10:09:20;;;;;;;;;51.67;39.67;;;;;12.90;100.00;100372.34;6267318;20;3608654;-70
2022/10/30 10:12:19;;;;;;;;;51.00;39.67;;;;;13.21;100.00;100374.06;6302199;20;3621357;-69
2022/10/30 10:14:48;;;;;;;;;54.00;39.00;;;;;13.26;100.00;100381.88;6264649;20;1910862;-68
2022/10/30 10:17:45;;;;;;;;;52.00;35.67;;;;;13.12;100.00;100380.03;6272717;20;3629460;-68
2022/10/30 10:20:36;;;;;;;;;46.67;36.00;;;;;13.15;100.00;100379.84;6307362;20;3603355;-69
2022/10/30 10:23:28;;;;;;;;;50.00;36.33;;;;;13.11;100.00;100372.88;6274438;20;3621294;-69
2022/10/30 10:26:10;;;;;;;;;45.00;34.33;;;;;13.27;100.00;100370.16;6307086;20;3607729;-68
2022/10/30 10:29:10;;;;;;;;;51.33;39.33;;;;;13.14;100.00;100351.16;6269970;20;3609755;-68
2022/10/30 10:32:12;;;;;;;;;47.00;37.33;;;;;13.21;100.00;100363.28;6309212;20;3602475;-68
2022/10/30 10:35:50;;;;;;;;;56.67;42.00;;;;;13.29;100.00;100349.34;6273497;20;3631648;-72
2022/10/30 10:39:04;;;;;;;;;47.25;37.00;;;;;13.41;100.00;100354.00;6308364;20;3612793;-70
2022/10/30 10:41:54;;;;;;;;;40.33;34.33;;;;;13.31;100.00;100345.59;6306440;20;3586716;-69
2022/10/30 10:45:02;;;;;;;;;37.00;31.67;;;;;13.14;100.00;100352.00;6284401;20;3619134;-69
2022/10/30 10:48:26;;;;;;;;;50.50;36.50;;;;;13.28;100.00;100344.94;6276295;20;3625360;-68
2022/10/30 10:51:08;;;;;;;;;47.67;36.00;;;;;13.31;100.00;100352.81;6306487;20;3615906;-70
2022/10/30 10:54:02;;;;;;;;;50.33;39.00;;;;;13.31;100.00;100353.69;6271648;20;3613845;-69
2022/10/30 10:56:39;;;;;;;;;46.67;36.67;;;;;13.07;100.00;100342.56;6306719;20;3609624;-68
2022/10/30 10:59:36;;;;;;;;;43.33;34.67;;;;;13.14;100.00;100351.16;6271467;20;3594318;-69
2022/10/30 11:02:07;;;;;;;;;44.00;35.00;;;;;13.28;100.00;100344.94;6276518;20;3605883;-70
2022/10/30 11:04:42;;;;;;;;;44.00;34.67;;;;;13.21;100.00;100336.31;6274960;20;3586734;-71
2022/10/30 11:07:29;;;;;;;;;44.33;35.00;;;;;13.18;100.00;100341.91;6273880;20;3605494;-69
2022/10/30 11:09:58;;;;;;;;;44.67;35.33;;;;;13.32;100.00;100322.19;6306375;20;3585697;-63
2022/10/30 11:12:36;;;;;;;;;38.33;32.00;;;;;13.23;100.00;100326.28;6270821;20;3601400;-68
2022/10/30 11:15:56;;;;;;;;;49.75;36.50;;;;;13.39;100.00;100328.94;6308257;20;3625387;-69
2022/10/30 11:18:26;;;;;;;;;68.00;52.00;;;;;13.37;100.00;100336.25;6302681;20;3622230;-68
2022/10/30 11:21:11;;;;;;;;;46.00;35.75;;;;;13.66;100.00;100325.44;6307126;20;3610718;-69
2022/10/30 11:23:48;;;;;;;;;44.67;37.00;;;;;13.34;100.00;100326.50;6307530;20;3594001;-70